Time;durP1;ratioP1;P1;durP2;ratioP2;P2;SDS_P1;SDS_P2;PMS_P1;PMS_P2;Temp;Humidity;BMP_temperature;BMP_pressure;BME280_temperature;BME280_humidity;BME280_pressure;Samples;Min_cycle;Max_cycle;Signal;HPM_P1;HPM_P2
2021/06/15 00:00:02;;;;;;;7.88;4.78;;;;;;;13.92;69.30;99919.38;4938484;29;20056;-64
2021/06/15 00:02:35;;;;;;;8.50;4.55;;;;;;;13.92;69.36;99911.66;4938390;29;20060;-65
2021/06/15 00:05:11;;;;;;;8.90;4.65;;;;;;;13.81;69.58;99922.06;4937361;29;20059;-64
2021/06/15 00:07:44;;;;;;;7.93;4.82;;;;;;;13.75;69.81;99913.59;4938558;29;20062;-64
2021/06/15 00:10:18;;;;;;;7.07;4.50;;;;;;;13.82;70.15;99910.09;4938171;29;20072;-64
2021/06/15 00:12:53;;;;;;;7.25;4.63;;;;;;;14.01;69.57;99901.31;4936752;29;20134;-63
2021/06/15 00:15:25;;;;;;;9.13;4.78;;;;;;;14.07;69.38;99914.06;4938229;29;20056;-65
2021/06/15 00:17:57;;;;;;;9.02;5.10;;;;;;;14.05;69.24;99910.69;4938142;29;20462;-65
2021/06/15 00:20:32;;;;;;;8.25;4.53;;;;;;;13.89;69.37;99914.28;4937983;29;20063;-65
2021/06/15 00:23:42;;;;;;;9.35;4.95;;;;;;;13.74;69.81;99909.31;4780473;23;20032;-69
2021/06/15 00:26:16;;;;;;;8.00;4.72;;;;;;;13.56;70.16;99914.59;4957439;28;20055;-64
2021/06/15 00:28:45;;;;;;;9.43;5.28;;;;;;;13.37;70.59;99907.06;4957015;29;20061;-64
2021/06/15 00:31:19;;;;;;;8.38;5.43;;;;;;;13.31;71.15;99904.56;4972136;28;20579;-64
2021/06/15 00:33:48;;;;;;;7.85;5.03;;;;;;;13.23;71.27;99908.03;4956999;28;20047;-64
2021/06/15 00:36:22;;;;;;;10.38;5.28;;;;;;;13.12;71.40;99902.16;4957180;29;20051;-65
2021/06/15 00:38:52;;;;;;;10.13;5.28;;;;;;;13.08;71.73;99906.44;4957228;29;20507;-64
2021/06/15 00:41:25;;;;;;;7.63;5.30;;;;;;;13.12;72.14;99905.59;4956541;28;20043;-64
2021/06/15 00:43:54;;;;;;;8.15;5.50;;;;;;;13.15;71.92;99895.28;4956648;29;20078;-64
2021/06/15 00:46:27;;;;;;;8.95;5.45;;;;;;;13.12;71.83;99913.28;4956727;29;20444;-64
2021/06/15 00:48:56;;;;;;;9.52;5.13;;;;;;;13.21;72.10;99902.94;4956717;28;20481;-64
2021/06/15 00:51:30;;;;;;;;;;;;;;;13.36;71.69;99897.66;4957042;28;20051;-64
2021/06/15 00:54:03;;;;;;;10.18;4.88;;;;;;;13.41;71.68;99901.03;4956463;28;19926;-64
2021/06/15 00:56:37;;;;;;;6.90;4.32;;;;;;;13.59;70.90;99899.19;4956598;29;20055;-64
2021/06/15 00:59:10;;;;;;;9.95;5.35;;;;;;;13.69;70.62;99903.38;4956527;28;20063;-64
2021/06/15 01:01:43;;;;;;;8.82;5.03;;;;;;;13.71;70.25;99905.06;4956755;28;20062;-64
2021/06/15 01:04:18;;;;;;;8.90;4.93;;;;;;;13.75;69.67;99895.63;4956252;28;20051;-63
2021/06/15 01:07:00;;;;;;;10.27;5.72;;;;;;;13.77;69.74;99899.03;4956377;28;20061;-63
2021/06/15 01:09:42;;;;;;;9.85;4.72;;;;;;;13.78;69.41;99893.00;4956300;28;20055;-63
2021/06/15 01:12:27;;;;;;;8.60;4.93;;;;;;;13.67;69.39;99893.13;4956554;28;20055;-64
2021/06/15 01:15:10;;;;;;;9.27;4.95;;;;;;;13.69;69.62;99893.97;4956268;28;20075;-63
2021/06/15 01:17:53;;;;;;;7.75;4.68;;;;;;;13.53;69.55;99892.41;4956217;28;20063;-64
2021/06/15 01:20:29;;;;;;;9.20;4.50;;;;;;;13.39;70.10;99886.53;4955015;29;20464;-64
2021/06/15 01:23:11;;;;;;;7.65;5.05;;;;;;;13.30;70.39;99887.47;4956395;28;20462;-64
2021/06/15 01:26:06;;;;;;;8.32;4.75;;;;;;;13.40;70.20;99883.97;4956378;28;20059;-64
2021/06/15 01:28:44;;;;;;;8.38;4.70;;;;;;;13.47;69.90;99889.03;4953782;29;20497;-64
2021/06/15 01:31:22;;;;;;;8.27;4.85;;;;;;;13.42;69.90;99887.38;4971123;28;20051;-64
2021/06/15 01:33:55;;;;;;;7.10;4.82;;;;;;;13.31;69.73;99886.63;4955985;28;20063;-63
2021/06/15 01:36:34;;;;;;;7.50;4.78;;;;;;;13.08;69.90;99885.94;4956562;28;20117;-63
2021/06/15 01:39:09;;;;;;;7.18;4.57;;;;;;;12.97;70.36;99887.72;4956208;28;20090;-63
2021/06/15 01:41:45;;;;;;;8.70;4.60;;;;;;;12.95;70.31;99879.19;4955829;29;20062;-63
2021/06/15 01:44:22;;;;;;;11.18;5.00;;;;;;;13.00;70.73;99897.94;4956020;28;20485;-63
2021/06/15 01:47:02;;;;;;;10.27;5.60;;;;;;;13.05;70.92;99891.03;4955892;28;20055;-64
2021/06/15 01:49:43;;;;;;;8.10;4.60;;;;;;;13.16;70.58;99873.94;4956114;28;20175;-63
2021/06/15 01:52:19;;;;;;;6.82;4.20;;;;;;;13.30;70.26;99879.78;4955756;28;20059;-63
2021/06/15 01:54:54;;;;;;;6.28;4.43;;;;;;;13.35;69.60;99884.88;4955787;28;20051;-63
2021/06/15 01:57:34;;;;;;;5.97;3.87;;;;;;;13.37;69.48;99878.88;4955198;29;20078;-63
2021/06/15 02:00:13;;;;;;;9.30;4.65;;;;;;;13.31;69.26;99875.53;4955711;28;20380;-63
2021/06/15 02:02:58;;;;;;;6.28;4.15;;;;;;;13.19;69.46;99879.03;4955702;28;20102;-64
2021/06/15 02:05:44;;;;;;;8.70;4.85;;;;;;;13.07;69.70;99889.38;4954235;29;20047;-64
2021/06/15 02:08:23;;;;;;;8.68;4.63;;;;;;;13.08;69.83;99890.22;4955645;28;20055;-63
2021/06/15 02:11:00;;;;;;;8.77;4.55;;;;;;;13.13;69.81;99885.91;4954468;29;20052;-64
2021/06/15 02:13:46;;;;;;;7.95;4.70;;;;;;;13.16;69.73;99891.88;4955583;28;20066;-64
2021/06/15 02:16:30;;;;;;;9.50;4.03;;;;;;;13.17;69.48;99877.34;4955861;28;20055;-63
2021/06/15 02:19:12;;;;;;;8.63;4.35;;;;;;;13.13;69.35;99868.81;4955846;28;20062;-63
2021/06/15 02:21:55;;;;;;;9.00;4.90;;;;;;;13.05;69.29;99875.69;4955542;28;20074;-63
2021/06/15 02:24:34;;;;;;;8.40;4.85;;;;;;;12.84;69.91;99870.72;4973272;28;20072;-63
2021/06/15 02:27:11;;;;;;;9.00;5.13;;;;;;;12.97;69.94;99863.78;4994074;28;20069;-65
2021/06/15 02:29:44;;;;;;;6.78;4.63;;;;;;;13.04;69.70;99863.75;4994118;28;20133;-64
2021/06/15 02:32:25;;;;;;;8.63;5.25;;;;;;;13.08;69.45;99864.59;4994721;28;20050;-64
2021/06/15 02:35:00;;;;;;;6.97;4.63;;;;;;;13.04;69.48;99863.75;4994369;28;20400;-63
2021/06/15 02:37:37;;;;;;;7.93;4.85;;;;;;;12.88;69.74;99864.72;4994015;28;20058;-63
2021/06/15 02:40:11;;;;;;;7.43;4.65;;;;;;;12.80;70.18;99869.03;4997527;28;20141;-64
2021/06/15 02:42:51;;;;;;;7.70;4.30;;;;;;;12.83;70.31;99869.03;4997844;28;20061;-63
2021/06/15 02:45:28;;;;;;;7.28;4.82;;;;;;;12.85;70.30;99877.56;4997667;28;20073;-63
2021/06/15 02:48:06;;;;;;;7.32;4.85;;;;;;;12.78;70.18;99873.31;4997613;28;20176;-63
2021/06/15 02:50:55;;;;;;;7.80;4.75;;;;;;;12.85;70.16;99880.09;4997902;28;20064;-63
2021/06/15 02:53:33;;;;;;;9.05;4.20;;;;;;;12.76;70.09;99872.50;4997566;28;20455;-63
2021/06/15 02:56:11;;;;;;;7.57;4.15;;;;;;;12.71;70.54;99874.22;4980405;28;20046;-63
2021/06/15 02:58:46;;;;;;;6.50;4.18;;;;;;;12.68;70.65;99885.34;4997409;28;20097;-63
2021/06/15 03:01:19;;;;;;;10.25;4.95;;;;;;;12.56;70.80;99889.66;4997457;28;20404;-61
2021/06/15 03:03:58;;;;;;;6.88;4.43;;;;;;;12.61;71.36;99880.25;4997388;28;20057;-61
2021/06/15 03:06:31;;;;;;;7.97;4.40;;;;;;;12.78;70.88;99870.78;4997333;28;20441;-61
2021/06/15 03:09:01;;;;;;;7.80;4.70;;;;;;;12.89;70.53;99884.34;4997266;28;20088;-61
2021/06/15 03:11:36;;;;;;;7.32;4.32;;;;;;;12.94;70.15;99887.72;4997260;28;20138;-61
2021/06/15 03:14:13;;;;;;;7.50;4.45;;;;;;;13.00;70.02;99886.84;4997353;28;20101;-61
2021/06/15 03:16:44;;;;;;;5.65;4.05;;;;;;;13.01;69.47;99884.25;4997401;28;20065;-61
2021/06/15 03:19:21;;;;;;;7.80;3.90;;;;;;;13.03;69.31;99891.94;4996891;28;20085;-61
2021/06/15 03:22:04;;;;;;;8.68;4.45;;;;;;;13.02;69.21;99891.09;4997009;28;20061;-61
2021/06/15 03:24:41;;;;;;;7.72;4.00;;;;;;;12.98;69.25;99894.53;4975877;28;20077;-62
2021/06/15 03:27:12;;;;;;;7.07;4.13;;;;;;;12.98;69.25;99893.69;4977562;28;20493;-62
2021/06/15 03:29:50;;;;;;;8.65;3.80;;;;;;;13.01;69.20;99904.75;4977198;28;20054;-63
2021/06/15 03:32:28;;;;;;;6.55;3.95;;;;;;;13.12;69.19;99903.00;4977422;28;20142;-62
2021/06/15 03:35:03;;;;;;;6.05;4.00;;;;;;;13.23;68.96;99906.34;4977368;28;20054;-62
2021/06/15 03:37:38;;;;;;;7.05;3.70;;;;;;;13.25;68.75;99909.72;4977269;28;20062;-61
2021/06/15 03:40:12;;;;;;;5.57;4.20;;;;;;;13.25;68.64;99921.69;4976572;28;20059;-61
2021/06/15 03:42:45;;;;;;;8.45;4.38;;;;;;;13.13;69.35;99914.94;4977275;28;20459;-62
2021/06/15 03:45:18;;;;;;;7.80;4.18;;;;;;;13.11;69.39;99911.56;4977025;28;20062;-62
2021/06/15 03:47:49;;;;;;;7.22;4.22;;;;;;;13.27;69.46;99913.13;4977126;28;20069;-61
2021/06/15 03:50:24;;;;;;;7.22;4.38;;;;;;;13.34;69.32;99904.53;4976375;28;20074;-62
2021/06/15 03:52:58;;;;;;;8.25;4.88;;;;;;;13.46;69.13;99913.81;4977298;28;20404;-61
2021/06/15 03:55:32;;;;;;;6.97;4.25;;;;;;;13.56;68.99;99914.59;4976985;28;20055;-61
2021/06/15 03:58:07;;;;;;;8.07;4.50;;;;;;;13.61;69.02;99912.84;4976916;28;20117;-61
2021/06/15 04:00:46;;;;;;;9.43;4.47;;;;;;;13.70;68.87;99912.78;4977156;28;20481;-61
2021/06/15 04:03:19;;;;;;;7.88;4.22;;;;;;;13.73;68.81;99912.72;4977091;28;20390;-61
2021/06/15 04:05:54;;;;;;;5.75;4.22;;;;;;;13.88;68.75;99912.56;4976613;28;20051;-62
2021/06/15 04:08:28;;;;;;;12.85;4.75;;;;;;;14.09;68.09;99907.22;4976773;28;20105;-63
2021/06/15 04:11:02;;;;;;;7.93;4.18;;;;;;;14.29;67.92;99920.69;4976696;28;20058;-61
2021/06/15 04:13:36;;;;;;;7.85;4.28;;;;;;;14.39;67.48;99917.16;4976930;28;20054;-61
2021/06/15 04:16:12;;;;;;;8.27;4.63;;;;;;;14.51;67.04;99911.88;4976877;28;20141;-61
2021/06/15 04:18:47;;;;;;;8.10;4.13;;;;;;;14.61;67.06;99918.56;4976868;28;20081;-61
2021/06/15 04:21:23;;;;;;;8.85;4.45;;;;;;;14.81;66.25;99920.88;4976742;28;20054;-61
2021/06/15 04:23:58;;;;;;;8.25;4.47;;;;;;;14.94;65.87;99916.41;4979310;28;20058;-61
2021/06/15 04:26:34;;;;;;;8.38;4.40;;;;;;;15.04;65.13;99911.13;4978284;28;20046;-61
2021/06/15 04:29:10;;;;;;;8.43;4.05;;;;;;;15.18;64.83;99921.19;4996102;28;20064;-61
2021/06/15 04:31:45;;;;;;;8.07;4.25;;;;;;;15.40;64.49;99920.81;4995934;28;20054;-62
2021/06/15 04:34:19;;;;;;;9.15;4.40;;;;;;;15.57;63.65;99925.72;4995672;28;20043;-62
2021/06/15 04:36:57;;;;;;;7.85;4.35;;;;;;;15.77;63.58;99920.22;4995665;28;20054;-61
2021/06/15 04:39:37;;;;;;;7.50;3.92;;;;;;;15.93;62.63;99919.91;4995725;28;20074;-62
2021/06/15 04:42:16;;;;;;;7.25;3.88;;;;;;;16.09;62.55;99929.06;4995511;28;20061;-61
2021/06/15 04:44:48;;;;;;;5.78;3.30;;;;;;;16.25;62.36;99928.75;4995471;28;20104;-61
2021/06/15 04:47:26;;;;;;;7.72;4.38;;;;;;;16.43;62.17;99920.66;4995110;28;20504;-61
2021/06/15 04:50:05;;;;;;;8.50;4.57;;;;;;;16.64;61.81;99920.22;4995417;28;20467;-61
2021/06/15 04:52:42;;;;;;;8.52;4.10;;;;;;;16.79;61.57;99925.06;4995425;28;20058;-60
2021/06/15 04:55:15;;;;;;;6.13;3.83;;;;;;;16.86;60.82;99929.22;4995201;28;20140;-62
2021/06/15 04:57:50;;;;;;;5.85;4.15;;;;;;;16.92;61.28;99923.91;4995139;28;20108;-63
2021/06/15 05:00:24;;;;;;;6.20;3.88;;;;;;;17.14;60.57;99922.53;4995555;28;20080;-62
2021/06/15 05:02:58;;;;;;;7.00;3.85;;;;;;;17.35;60.32;99922.00;4994307;28;20038;-61
2021/06/15 05:05:30;;;;;;;7.90;4.25;;;;;;;17.50;60.15;99925.94;4995013;28;20050;-61
2021/06/15 05:08:13;;;;;;;6.88;4.50;;;;;;;17.55;59.84;99925.88;4995072;28;20059;-61
2021/06/15 05:10:47;;;;;;;6.13;4.13;;;;;;;17.55;59.72;99923.28;4994988;28;20104;-61
2021/06/15 05:13:21;;;;;;;7.15;4.05;;;;;;;17.60;59.58;99918.84;4994933;28;20054;-62
2021/06/15 05:15:55;;;;;;;7.63;4.18;;;;;;;17.77;59.17;99922.72;4994855;28;20558;-62
2021/06/15 05:18:28;;;;;;;7.18;4.13;;;;;;;17.88;58.22;99914.66;4994806;28;20065;-61
2021/06/15 05:21:00;;;;;;;6.70;4.10;;;;;;;18.04;57.64;99921.97;4994623;28;20058;-61
2021/06/15 05:23:38;;;;;;;7.28;3.90;;;;;;;18.24;57.07;99911.06;4994559;28;20078;-62
2021/06/15 05:26:12;;;;;;;6.07;3.78;;;;;;;18.35;56.74;99918.53;4994578;28;20074;-60
2021/06/15 05:28:45;;;;;;;4.90;3.38;;;;;;;18.29;56.61;99913.53;4994675;28;20058;-62
2021/06/15 05:31:18;;;;;;;7.82;4.22;;;;;;;17.92;56.79;99856.91;4994777;28;20085;-61
2021/06/15 05:33:50;;;;;;;6.80;3.53;;;;;;;18.41;56.66;99932.13;4994549;28;20492;-62
2021/06/15 05:36:23;;;;;;;7.32;3.65;;;;;;;18.57;56.34;99930.81;4994925;28;20141;-62
2021/06/15 05:38:57;;;;;;;6.22;3.70;;;;;;;18.67;56.04;99932.25;4994849;28;20049;-62
2021/06/15 05:41:29;;;;;;;6.30;3.53;;;;;;;18.77;55.77;99924.22;4994495;28;20054;-61
2021/06/15 05:44:02;;;;;;;6.90;3.53;;;;;;;18.87;55.79;99926.50;4994550;28;20054;-61
2021/06/15 05:46:34;;;;;;;7.32;4.38;;;;;;;18.95;56.08;99931.44;4994245;28;20415;-61
2021/06/15 05:49:07;;;;;;;8.27;3.35;;;;;;;19.12;56.05;99931.75;4994214;28;20054;-62
2021/06/15 05:51:40;;;;;;;11.90;3.97;;;;;;;19.28;55.91;99936.41;4994677;28;20046;-62
2021/06/15 05:54:14;;;;;;;6.50;3.67;;;;;;;19.43;55.75;99937.69;4994604;28;20057;-61
2021/06/15 05:56:47;;;;;;;8.48;3.90;;;;;;;19.54;55.91;99933.00;4994918;28;20104;-62
2021/06/15 05:59:16;;;;;;;7.53;4.18;;;;;;;19.69;56.09;99937.66;4994358;28;20483;-62
2021/06/15 06:01:49;;;;;;;5.82;3.58;;;;;;;19.84;55.14;99947.47;4994140;28;20381;-62
2021/06/15 06:04:21;;;;;;;10.80;4.05;;;;;;;19.99;54.82;99951.28;4994038;28;20473;-61
2021/06/15 06:09:42;;;;;;;11.13;4.03;;;;;;;20.24;53.82;99948.72;4994520;28;20050;-62
2021/06/15 06:12:12;;;;;;;8.55;3.83;;;;;;;20.40;53.44;99948.13;4994193;28;20085;-62
2021/06/15 06:14:44;;;;;;;5.78;3.47;;;;;;;20.41;52.82;99954.16;4997125;28;20054;-61
2021/06/15 06:17:14;;;;;;;6.72;3.75;;;;;;;20.39;52.30;99943.00;4998026;28;20082;-62
2021/06/15 06:20:12;;;;;;;5.43;3.25;;;;;;;20.41;52.21;99959.34;4997827;28;20042;-63
2021/06/15 06:22:44;;;;;;;6.55;3.42;;;;;;;20.41;52.10;99942.03;4998186;28;20058;-60
2021/06/15 06:25:17;;;;;;;6.32;3.45;;;;;;;20.54;51.98;99950.19;4997364;28;20054;-63
2021/06/15 06:27:49;;;;;;;6.85;3.47;;;;;;;20.63;51.88;99953.31;4997633;28;20054;-61
2021/06/15 06:30:22;;;;;;;10.43;3.90;;;;;;;20.62;51.60;99948.19;4997921;28;20141;-62
2021/06/15 06:32:55;;;;;;;5.22;3.10;;;;;;;20.70;51.28;99952.19;4997580;28;20419;-61
2021/06/15 06:35:28;;;;;;;7.20;3.10;;;;;;;20.82;50.74;99935.31;4997825;28;20554;-62
2021/06/15 06:38:03;;;;;;;5.47;3.13;;;;;;;21.02;50.28;99950.94;4997854;28;20077;-62
2021/06/15 06:40:38;;;;;;;6.05;3.17;;;;;;;21.23;50.11;99952.75;4997773;28;20559;-62
2021/06/15 06:43:09;;;;;;;5.43;3.35;;;;;;;21.32;49.82;99947.19;4997649;28;20085;-61
2021/06/15 06:45:40;;;;;;;6.07;3.20;;;;;;;21.51;50.14;99938.63;4997380;28;20053;-62
2021/06/15 06:48:13;;;;;;;5.97;2.83;;;;;;;21.56;49.29;99932.34;4997214;28;20069;-61
2021/06/15 06:50:46;;;;;;;5.70;3.33;;;;;;;21.68;49.18;99950.03;4997642;28;20058;-64
2021/06/15 06:53:19;;;;;;;6.45;3.20;;;;;;;21.86;48.75;99953.63;4997469;28;20061;-63
2021/06/15 06:55:53;;;;;;;5.95;3.20;;;;;;;21.96;48.09;99949.72;4997462;28;20049;-63
2021/06/15 06:58:22;;;;;;;7.43;3.60;;;;;;;21.98;48.06;99942.69;4997210;28;20050;-63
2021/06/15 07:00:54;;;;;;;;;;;;;;;22.00;48.28;99953.91;4997722;28;20074;-64
2021/06/15 07:03:27;;;;;;;5.35;2.72;;;;;;;22.22;47.71;99952.03;4997372;28;20426;-63
2021/06/15 07:05:56;;;;;;;6.70;3.60;;;;;;;22.32;47.50;99947.28;4997250;28;20163;-63
2021/06/15 07:08:29;;;;;;;5.22;2.70;;;;;;;22.34;47.31;99946.28;4997101;28;20054;-63
2021/06/15 07:11:04;;;;;;;5.88;2.80;;;;;;;22.45;46.01;99944.09;4997119;28;20081;-63
2021/06/15 07:13:33;;;;;;;6.20;2.80;;;;;;;22.50;46.17;99947.31;4996974;28;20499;-63
2021/06/15 07:16:06;;;;;;;6.03;3.10;;;;;;;22.65;45.28;99941.44;4996992;28;20058;-62
2021/06/15 07:18:38;;;;;;;4.60;2.30;;;;;;;22.64;43.94;99938.91;4996947;28;20065;-63
2021/06/15 07:21:08;;;;;;;6.43;2.90;;;;;;;22.70;43.44;99941.22;4996983;28;20077;-62
2021/06/15 07:23:39;;;;;;;4.97;2.72;;;;;;;22.75;43.16;99941.84;4996280;28;20054;-63
2021/06/15 07:26:10;;;;;;;5.18;3.08;;;;;;;22.89;42.57;99943.84;4995842;28;20485;-63
2021/06/15 07:28:39;;;;;;;4.70;2.70;;;;;;;22.96;42.39;99929.63;4996518;28;20047;-63
2021/06/15 07:31:12;;;;;;;4.75;2.30;;;;;;;23.09;42.32;99935.91;4996766;28;20101;-62
2021/06/15 07:33:45;;;;;;;6.82;2.90;;;;;;;23.31;42.09;99927.00;4996436;28;20042;-63
2021/06/15 07:36:17;;;;;;;6.05;2.67;;;;;;;23.53;42.41;99925.97;4996905;28;20425;-62
2021/06/15 07:38:51;;;;;;;4.63;2.55;;;;;;;23.56;41.82;99931.03;4996572;28;20046;-63
2021/06/15 07:41:28;;;;;;;8.02;2.70;;;;;;;23.66;41.69;99927.88;4996919;28;20444;-63
2021/06/15 07:43:58;;;;;;;5.50;2.70;;;;;;;23.67;41.35;99929.56;4996469;28;20055;-64
2021/06/15 07:46:31;;;;;;;9.38;2.85;;;;;;;23.73;41.19;99924.03;4996819;28;20064;-64
2021/06/15 07:49:01;;;;;;;6.55;3.03;;;;;;;23.82;40.99;99907.97;4996172;28;20096;-64
2021/06/15 07:51:34;;;;;;;4.32;2.42;;;;;;;23.94;40.53;99903.88;4996517;28;20436;-63
2021/06/15 07:54:07;;;;;;;5.32;2.40;;;;;;;23.98;41.17;99913.22;4996399;28;20057;-63
2021/06/15 07:56:41;;;;;;;5.97;2.75;;;;;;;24.14;40.97;99913.31;4996388;28;20062;-63
2021/06/15 07:59:13;;;;;;;6.03;2.78;;;;;;;24.14;40.79;99918.53;4996118;28;20058;-62
2021/06/15 08:01:43;;;;;;;4.38;2.25;;;;;;;23.86;41.74;99912.06;4996469;28;20050;-63
2021/06/15 08:04:16;;;;;;;4.65;2.75;;;;;;;24.02;41.81;99906.91;4995970;28;20052;-63
2021/06/15 08:06:48;;;;;;;4.80;2.60;;;;;;;24.08;41.09;99905.78;4996360;28;20074;-63
2021/06/15 08:09:20;;;;;;;4.95;2.17;;;;;;;24.23;41.25;99912.81;4996157;28;20238;-62
2021/06/15 08:11:54;;;;;;;6.25;2.78;;;;;;;24.47;40.29;99906.28;4996075;28;20453;-62
2021/06/15 08:14:24;;;;;;;4.22;2.30;;;;;;;24.71;39.76;99911.94;4996035;28;20062;-62
2021/06/15 08:16:56;;;;;;;5.28;2.63;;;;;;;24.89;40.25;99906.56;4995797;28;20511;-62
2021/06/15 08:19:30;;;;;;;3.78;2.30;;;;;;;24.40;40.69;99884.88;4995908;28;20054;-62
2021/06/15 08:22:03;;;;;;;4.93;2.78;;;;;;;24.13;40.81;99901.16;4995911;28;20056;-61
2021/06/15 08:24:33;;;;;;;6.35;2.70;;;;;;;24.27;41.33;99911.72;4995617;28;20054;-62
2021/06/15 08:27:07;;;;;;;8.43;2.53;;;;;;;24.59;40.06;99900.41;4995602;28;20046;-61
2021/06/15 08:29:36;;;;;;;7.47;2.90;;;;;;;24.87;38.93;99900.59;4995723;28;20584;-63
2021/06/15 08:32:06;;;;;;;;;;;;;;;25.18;38.82;99900.56;4996001;28;20062;-62
2021/06/15 08:34:37;;;;;;;;;;;;;;;25.35;40.14;99896.97;4996398;28;19929;-61
2021/06/15 08:37:09;;;;;;;5.57;2.40;;;;;;;25.36;40.87;99892.59;4995689;28;20351;-62
2021/06/15 08:39:39;;;;;;;4.53;2.25;;;;;;;25.34;40.59;99889.22;4995498;28;20133;-63
2021/06/15 08:42:16;;;;;;;3.85;2.30;;;;;;;25.50;40.20;99897.88;4995703;28;20061;-62
2021/06/15 08:44:46;;;;;;;6.35;2.28;;;;;;;25.62;38.49;99889.31;4995704;28;20133;-62
2021/06/15 08:47:19;;;;;;;4.68;2.40;;;;;;;25.66;37.99;99888.19;4995666;28;20047;-62
2021/06/15 08:49:49;;;;;;;3.67;2.00;;;;;;;25.82;37.12;99892.44;4995582;28;20066;-62
2021/06/15 08:52:26;;;;;;;;;;;;;;;25.98;37.22;99887.13;4995929;28;20460;-63
2021/06/15 08:54:56;;;;;;;4.35;2.38;;;;;;;26.08;38.16;99888.25;4995048;28;19925;-62
2021/06/15 08:57:30;;;;;;;7.72;2.40;;;;;;;26.14;37.43;99887.91;4995531;28;20070;-63
2021/06/15 09:00:02;;;;;;;6.82;2.70;;;;;;;26.28;36.84;99880.03;4995226;28;20053;-63
2021/06/15 09:02:42;;;;;;;4.53;2.50;;;;;;;26.52;36.45;99886.38;4995117;28;20544;-62
2021/06/15 09:05:18;;;;;;;5.88;2.15;;;;;;;26.63;35.85;99884.84;4995023;28;20054;-61
2021/06/15 09:08:03;;;;;;;5.15;2.00;;;;;;;26.72;35.45;99881.66;4994921;28;20061;-63
2021/06/15 09:10:34;;;;;;;5.22;2.10;;;;;;;26.54;35.26;99879.25;4994525;28;20097;-62
2021/06/15 09:13:07;;;;;;;5.55;2.10;;;;;;;26.43;35.50;99888.72;4994595;28;20054;-63
2021/06/15 09:15:36;;;;;;;4.95;2.50;;;;;;;26.66;34.95;99880.25;4994679;28;20109;-62
2021/06/15 09:18:06;;;;;;;5.93;2.65;;;;;;;26.80;36.56;99882.03;4994628;28;20477;-62
2021/06/15 09:20:38;;;;;;;;;;;;;;;26.80;36.12;99876.81;4995165;28;20046;-61
2021/06/15 09:23:11;;;;;;;5.05;2.20;;;;;;;26.74;35.09;99874.53;4994763;28;19984;-61
2021/06/15 09:25:49;;;;;;;3.60;2.17;;;;;;;26.63;34.10;99879.63;4994235;28;20050;-61
2021/06/15 09:28:22;;;;;;;3.92;2.00;;;;;;;26.85;35.44;99880.78;4994516;28;20077;-62
2021/06/15 09:31:01;;;;;;;4.43;2.08;;;;;;;26.96;35.45;99882.72;4994652;28;20069;-63
2021/06/15 09:33:42;;;;;;;5.22;2.10;;;;;;;26.88;35.11;99877.13;4993924;28;20133;-59
2021/06/15 09:36:28;;;;;;;4.85;2.25;;;;;;;26.99;34.56;99877.28;4994677;28;20077;-63
2021/06/15 09:39:04;;;;;;;4.55;1.95;;;;;;;26.72;34.75;99874.63;4977330;28;20046;-62
2021/06/15 09:41:39;;;;;;;3.45;2.00;;;;;;;26.97;35.87;99868.69;4994039;28;20507;-62
2021/06/15 09:44:22;;;;;;;4.57;2.20;;;;;;;27.04;35.60;99869.97;4994550;28;20487;-65
2021/06/15 09:46:56;;;;;;;4.22;2.30;;;;;;;27.14;35.75;99860.53;4994414;28;20058;-64
2021/06/15 09:49:31;;;;;;;5.20;2.60;;;;;;;27.27;34.56;99866.69;4993761;28;20046;-63
2021/06/15 09:52:13;;;;;;;5.85;2.10;;;;;;;26.68;35.70;99861.84;4994086;28;20056;-63
2021/06/15 09:54:44;;;;;;;4.35;2.30;;;;;;;27.05;37.73;99855.91;4994375;28;20448;-64
2021/06/15 09:57:21;;;;;;;4.10;2.40;;;;;;;27.37;36.32;99856.41;4994135;28;20046;-63
2021/06/15 10:00:10;;;;;;;5.20;2.38;;;;;;;27.36;35.20;99860.81;4993924;28;20050;-61
2021/06/15 10:02:54;;;;;;;4.05;2.38;;;;;;;27.20;35.04;99855.75;4993904;28;20058;-64
2021/06/15 10:05:27;;;;;;;5.32;2.60;;;;;;;27.37;34.32;99864.28;4994036;28;20488;-62
2021/06/15 10:07:58;;;;;;;5.00;2.28;;;;;;;26.98;34.82;99852.03;4994004;28;20133;-62
2021/06/15 10:10:31;;;;;;;4.53;2.10;;;;;;;26.73;35.04;99855.34;4994358;28;20054;-66
2021/06/15 10:13:01;;;;;;;6.63;2.40;;;;;;;27.14;35.58;99855.31;4976700;28;20068;-63
2021/06/15 10:15:33;;;;;;;4.55;2.47;;;;;;;27.28;34.06;99847.41;4976653;28;20411;-63
2021/06/15 10:18:03;;;;;;;5.47;2.50;;;;;;;27.11;35.33;99840.63;4994015;28;20046;-63
2021/06/15 10:20:35;;;;;;;4.70;2.28;;;;;;;27.43;34.38;99846.38;4993900;28;20054;-63
2021/06/15 10:23:06;;;;;;;3.72;2.25;;;;;;;27.79;35.93;99843.88;4993963;28;20073;-62
2021/06/15 10:25:37;;;;;;;5.47;2.75;;;;;;;28.11;35.00;99846.09;4993451;28;20050;-64
2021/06/15 10:28:12;;;;;;;3.55;2.20;;;;;;;28.35;34.20;99844.34;4993919;28;20051;-63
2021/06/15 10:30:45;;;;;;;3.90;2.35;;;;;;;28.10;33.37;99837.38;4993913;28;20104;-63
2021/06/15 10:33:16;;;;;;;3.83;2.45;;;;;;;27.87;33.77;99831.09;4993915;28;20054;-63
2021/06/15 10:35:47;;;;;;;4.25;2.28;;;;;;;27.97;34.43;99831.28;4993920;28;20049;-62
2021/06/15 10:38:40;;;;;;;4.40;2.70;;;;;;;27.82;34.88;99832.34;4993917;28;20500;-63
2021/06/15 10:41:21;;;;;;;5.05;2.63;;;;;;;27.93;34.21;99832.41;4993917;28;20058;-61
2021/06/15 10:43:55;;;;;;;5.15;2.20;;;;;;;27.93;33.33;99812.28;4993706;28;20101;-63
2021/06/15 10:46:36;;;;;;;5.82;2.13;;;;;;;27.79;33.62;99828.13;4993856;28;20062;-63
2021/06/15 10:49:11;;;;;;;4.07;2.20;;;;;;;27.54;34.57;99812.41;4993752;28;20054;-63
2021/06/15 10:51:53;;;;;;;3.60;2.22;;;;;;;27.98;36.48;99822.44;4993809;28;20456;-64
2021/06/15 10:54:35;;;;;;;3.47;2.03;;;;;;;28.35;36.45;99810.22;4993811;28;20046;-65
2021/06/15 10:57:19;;;;;;;4.72;2.03;;;;;;;28.24;35.98;99800.47;4994186;28;20060;-64
2021/06/15 11:00:01;;;;;;;4.63;2.20;;;;;;;28.18;34.73;99802.69;4995040;28;20064;-64
2021/06/15 11:02:37;;;;;;;6.03;2.20;;;;;;;28.35;33.86;99804.97;4997112;28;20116;-63
2021/06/15 11:05:28;;;;;;;4.75;2.33;;;;;;;28.49;34.08;99799.56;4996983;28;20080;-64
2021/06/15 11:08:15;;;;;;;4.60;2.33;;;;;;;28.68;33.09;99801.69;4996859;28;20133;-64
2021/06/15 11:10:49;;;;;;;4.57;2.10;;;;;;;28.71;32.25;99791.81;4996502;28;20484;-63
2021/06/15 11:13:46;;;;;;;5.90;2.50;;;;;;;28.77;32.92;99790.53;4997059;28;20121;-64
2021/06/15 11:16:26;;;;;;;5.22;2.50;;;;;;;28.85;33.82;99783.75;4956197;29;20513;-60
2021/06/15 11:19:17;;;;;;;3.45;1.95;;;;;;;28.84;31.86;99787.31;4956185;29;20055;-64
2021/06/15 11:21:51;;;;;;;5.85;2.20;;;;;;;28.48;32.38;99784.75;4955751;29;20066;-64
2021/06/15 11:24:22;;;;;;;4.00;2.30;;;;;;;28.58;32.80;99780.50;4955855;29;20081;-64
2021/06/15 11:26:53;;;;;;;4.68;2.30;;;;;;;28.47;32.86;99783.91;4955865;29;20106;-63
2021/06/15 11:29:33;;;;;;;4.22;2.20;;;;;;;27.96;33.38;99781.50;4955855;29;20070;-63
2021/06/15 11:32:20;;;;;;;5.38;2.28;;;;;;;28.08;34.06;99780.66;4955844;29;20106;-62
2021/06/15 11:35:17;;;;;;;3.38;2.20;;;;;;;28.21;32.76;99776.22;4955766;29;20051;-64
2021/06/15 11:37:51;;;;;;;4.68;1.92;;;;;;;28.49;33.68;99771.50;4955845;29;20057;-65
2021/06/15 11:40:27;;;;;;;4.65;2.13;;;;;;;28.95;33.41;99774.22;4955724;29;20055;-64
2021/06/15 11:43:19;;;;;;;4.57;1.98;;;;;;;29.05;30.79;99767.34;4955841;29;20051;-63
2021/06/15 11:45:50;;;;;;;4.55;2.30;;;;;;;29.11;29.95;99764.22;4955585;29;20565;-64
2021/06/15 11:48:31;;;;;;;4.10;2.10;;;;;;;29.30;30.19;99757.63;4975930;28;20125;-62
2021/06/15 11:51:03;;;;;;;3.15;1.70;;;;;;;29.46;30.75;99758.13;4976879;28;20058;-65
2021/06/15 11:53:39;;;;;;;3.42;1.70;;;;;;;29.47;29.33;99759.78;4977071;28;20493;-63
2021/06/15 11:56:15;;;;;;;4.47;1.80;;;;;;;29.27;28.57;99755.22;4976659;28;20051;-64
2021/06/15 11:58:47;;;;;;;4.22;1.92;;;;;;;29.08;28.30;99748.69;4976794;28;20055;-64
2021/06/15 12:01:17;;;;;;;3.53;2.08;;;;;;;28.91;29.14;99736.00;4977001;28;20431;-65
2021/06/15 12:03:51;;;;;;;4.18;2.13;;;;;;;28.71;29.99;99744.53;4976852;28;20067;-64
2021/06/15 12:06:21;;;;;;;4.05;2.08;;;;;;;29.08;30.85;99745.25;4976744;28;20515;-64
2021/06/15 12:09:04;;;;;;;5.68;2.05;;;;;;;29.35;29.52;99729.16;4976927;28;20050;-64
2021/06/15 12:11:34;;;;;;;3.63;2.00;;;;;;;29.54;31.36;99734.66;4976116;28;20544;-65
2021/06/15 12:14:06;;;;;;;4.38;2.05;;;;;;;29.66;30.52;99720.53;4976436;28;20560;-64